createdAt,value
2022-11-22T00:00:10.614Z,99694.28
2022-11-22T00:02:37.073Z,99691.53
2022-11-22T00:05:03.918Z,99682.59
2022-11-22T00:07:30.405Z,99679.13
2022-11-22T00:09:56.876Z,99678.19
2022-11-22T00:12:23.416Z,99675.56
2022-11-22T00:14:55.463Z,99687.63
2022-11-22T00:17:23.213Z,99688.25
2022-11-22T00:19:49.599Z,99694.25
2022-11-22T00:22:16.281Z,99696.75
2022-11-22T00:24:44.047Z,99692.22
2022-11-22T00:27:10.408Z,99696.41
2022-11-22T00:29:36.809Z,99697.97
2022-11-22T00:32:03.543Z,99690.22
2022-11-22T00:34:29.973Z,99685.34
2022-11-22T00:36:56.432Z,99683.31
2022-11-22T00:39:22.875Z,99687.28
2022-11-22T00:41:49.263Z,99683.84
2022-11-22T00:44:15.743Z,99680.88
2022-11-22T00:46:42.150Z,99675.50
2022-11-22T00:49:08.546Z,99673.47
2022-11-22T00:51:34.987Z,99673.59
2022-11-22T00:54:01.484Z,99670.72
2022-11-22T00:56:28.328Z,99669.03
2022-11-22T00:58:54.718Z,99678.38
2022-11-22T01:01:21.172Z,99672.19
2022-11-22T01:03:47.700Z,99671.94
2022-11-22T01:06:14.078Z,99671.13
2022-11-22T01:08:40.495Z,99674.59
2022-11-22T01:11:06.871Z,99668.50
2022-11-22T01:13:33.351Z,99673.63
2022-11-22T01:16:05.935Z,99669.22
2022-11-22T01:18:33.097Z,99672.69
2022-11-22T01:20:59.480Z,99666.47
2022-11-22T01:23:26.018Z,99653.44
2022-11-22T01:25:52.463Z,99644.59
2022-11-22T01:28:19.324Z,99640.16
2022-11-22T01:30:49.570Z,99647.13
2022-11-22T01:33:15.864Z,99640.19
2022-11-22T01:35:42.835Z,99653.91
2022-11-22T01:38:09.608Z,99641.84
2022-11-22T01:40:36.075Z,99644.47
2022-11-22T01:43:04.016Z,99650.59
2022-11-22T01:45:30.391Z,99650.69
2022-11-22T01:48:04.190Z,99647.34
2022-11-22T01:50:35.173Z,99643.38
2022-11-22T01:53:14.490Z,99659.91
2022-11-22T01:55:41.812Z,99621.38
2022-11-22T01:58:10.378Z,99635.28
2022-11-22T02:00:38.755Z,99637.78
2022-11-22T02:03:09.627Z,99646.53
2022-11-22T02:05:36.246Z,99642.94
2022-11-22T02:08:27.270Z,99625.97
2022-11-22T02:10:56.287Z,99633.88
2022-11-22T02:13:24.438Z,99638.19
2022-11-22T02:15:52.250Z,99631.97
2022-11-22T02:18:19.330Z,99618.09
2022-11-22T02:20:45.918Z,99619.75
2022-11-22T02:23:31.641Z,99611.66
2022-11-22T02:25:59.983Z,99613.28
2022-11-22T02:28:30.145Z,99619.38
2022-11-22T02:30:56.840Z,99599.44
2022-11-22T02:33:23.297Z,99605.41
2022-11-22T02:35:49.882Z,99600.97
2022-11-22T02:38:25.996Z,99596.44
2022-11-22T02:40:57.032Z,99603.38
2022-11-22T02:43:45.707Z,99595.59
2022-11-22T02:46:23.424Z,99599.19
2022-11-22T02:48:50.000Z,99587.69
2022-11-22T02:51:19.696Z,99579.94
2022-11-22T02:53:48.033Z,99564.03
2022-11-22T02:56:15.554Z,99584.13
2022-11-22T02:58:43.461Z,99571.81
2022-11-22T03:01:10.435Z,99557.09
2022-11-22T03:03:38.414Z,99569.19
2022-11-22T03:06:04.901Z,99558.53
2022-11-22T03:08:31.339Z,99544.44
2022-11-22T03:10:59.015Z,99547.91
2022-11-22T03:13:26.210Z,99543.25
2022-11-22T03:15:52.939Z,99522.88
2022-11-22T03:18:19.467Z,99533.91
2022-11-22T03:20:45.892Z,99544.91
2022-11-22T03:23:12.406Z,99558.19
2022-11-22T03:25:39.555Z,99556.75
2022-11-22T03:28:06.362Z,99566.09
2022-11-22T03:30:32.908Z,99561.66
2022-11-22T03:32:59.282Z,99543.97
2022-11-22T03:35:25.671Z,99541.44
2022-11-22T03:37:52.127Z,99555.31
2022-11-22T03:40:18.540Z,99547.53
2022-11-22T03:42:44.981Z,99557.97
2022-11-22T03:45:11.396Z,99548.13
2022-11-22T03:47:37.789Z,99549.69
2022-11-22T03:50:05.328Z,99546.22
2022-11-22T03:52:31.744Z,99554.00
2022-11-22T03:54:58.155Z,99558.41
2022-11-22T03:57:24.570Z,99555.06
2022-11-22T03:59:50.970Z,99555.91
2022-11-22T04:02:17.476Z,99555.66
2022-11-22T04:04:44.223Z,99553.03
2022-11-22T04:07:10.695Z,99538.69
2022-11-22T04:09:37.208Z,99552.91
2022-11-22T04:12:04.056Z,99556.50
2022-11-22T04:14:49.161Z,99557.34
2022-11-22T04:17:35.798Z,99560.81
2022-11-22T04:20:20.755Z,99568.72
2022-11-22T04:22:56.021Z,99557.94
2022-11-22T04:25:22.727Z,99564.16
2022-11-22T04:27:49.133Z,99551.97
2022-11-22T04:30:20.289Z,99554.38
2022-11-22T04:32:47.462Z,99543.72
2022-11-22T04:35:16.739Z,99533.91
2022-11-22T04:37:43.249Z,99527.81
2022-11-22T04:40:10.349Z,99529.34
2022-11-22T04:42:55.367Z,99547.66
2022-11-22T04:45:21.831Z,99531.72
2022-11-22T04:48:00.298Z,99528.97
2022-11-22T04:50:47.353Z,99530.66
2022-11-22T04:53:14.968Z,99531.50
2022-11-22T04:55:42.572Z,99546.44
2022-11-22T04:58:09.325Z,99533.19
2022-11-22T05:00:36.043Z,99532.44
2022-11-22T05:03:03.801Z,99532.81
2022-11-22T05:05:30.450Z,99528.28
2022-11-22T05:07:58.510Z,99518.59
2022-11-22T05:10:27.032Z,99519.25
2022-11-22T05:12:54.363Z,99519.38
2022-11-22T05:15:20.810Z,99534.09
2022-11-22T05:17:47.303Z,99542.97
2022-11-22T05:20:14.033Z,99543.56
2022-11-22T05:22:59.237Z,99545.00
2022-11-22T05:25:25.966Z,99548.59
2022-11-22T05:27:55.319Z,99532.78
2022-11-22T05:30:21.748Z,99529.44
2022-11-22T05:32:48.226Z,99535.91
2022-11-22T05:35:14.728Z,99532.56
2022-11-22T05:37:41.131Z,99540.06
2022-11-22T05:40:08.264Z,99532.88
2022-11-22T05:42:35.498Z,99538.88
2022-11-22T05:45:01.943Z,99529.88
2022-11-22T05:47:28.430Z,99526.41
2022-11-22T05:49:54.799Z,99545.56
2022-11-22T05:52:21.332Z,99527.25
2022-11-22T05:54:47.750Z,99530.38
2022-11-22T05:57:14.123Z,99535.63
2022-11-22T05:59:44.126Z,99538.03
2022-11-22T06:02:10.741Z,99527.69
2022-11-22T06:04:37.210Z,99534.16
2022-11-22T06:07:08.487Z,99536.19
2022-11-22T06:09:36.686Z,99532.38
2022-11-22T06:12:03.813Z,99539.44
2022-11-22T06:14:30.224Z,99536.69
2022-11-22T06:16:56.811Z,99537.75
2022-11-22T06:19:23.220Z,99544.56
2022-11-22T06:21:49.690Z,99547.81
2022-11-22T06:24:16.123Z,99548.06
2022-11-22T06:26:42.516Z,99555.72
2022-11-22T06:29:08.984Z,99554.75
2022-11-22T06:31:35.582Z,99552.25
2022-11-22T06:34:02.006Z,99556.91
2022-11-22T06:36:30.488Z,99549.84
2022-11-22T06:38:57.898Z,99558.09
2022-11-22T06:41:26.898Z,99565.06
2022-11-22T06:43:57.417Z,99564.22
2022-11-22T06:46:25.393Z,99564.09
2022-11-22T06:48:52.453Z,99562.53
2022-11-22T06:51:27.103Z,99571.03
2022-11-22T06:53:57.579Z,99570.03
2022-11-22T06:56:27.512Z,99561.19
2022-11-22T06:58:54.636Z,99558.53
2022-11-22T07:01:28.768Z,99554.13
2022-11-22T07:03:58.331Z,99564.53
2022-11-22T07:06:30.905Z,99560.22
2022-11-22T07:08:57.516Z,99546.09
2022-11-22T07:11:26.511Z,99553.16
2022-11-22T07:13:54.048Z,99568.84
2022-11-22T07:16:21.817Z,99548.59
2022-11-22T07:18:48.949Z,99546.94
2022-11-22T07:21:21.230Z,99540.69
2022-11-22T07:23:49.371Z,99541.66
2022-11-22T07:26:17.099Z,99531.97
2022-11-22T07:28:44.273Z,99549.31
2022-11-22T07:31:13.322Z,99541.41
2022-11-22T07:33:40.262Z,99550.16
2022-11-22T07:36:12.596Z,99543.22
2022-11-22T07:38:39.514Z,99532.78
2022-11-22T07:41:07.032Z,99540.47
2022-11-22T07:43:34.061Z,99536.50
2022-11-22T07:46:05.594Z,99543.94
2022-11-22T07:48:32.793Z,99548.25
2022-11-22T07:51:05.047Z,99535.78
2022-11-22T07:53:31.989Z,99549.91
2022-11-22T07:56:04.971Z,99534.81
2022-11-22T07:58:32.293Z,99539.38
2022-11-22T08:00:58.889Z,99533.88
2022-11-22T08:03:28.818Z,99534.69
2022-11-22T08:06:03.554Z,99551.06
2022-11-22T08:08:34.536Z,99538.41
2022-11-22T08:11:01.571Z,99545.25
2022-11-22T08:13:28.921Z,99557.06
2022-11-22T08:15:57.537Z,99567.47
2022-11-22T08:18:26.093Z,99573.47
2022-11-22T08:21:01.533Z,99572.63
2022-11-22T08:23:28.063Z,99582.94
2022-11-22T08:25:58.951Z,99577.53
2022-11-22T08:28:26.184Z,99581.13
2022-11-22T08:30:58.391Z,99585.56
2022-11-22T08:33:24.866Z,99577.97
2022-11-22T08:35:51.877Z,99579.78
2022-11-22T08:38:18.520Z,99577.00
2022-11-22T08:40:45.261Z,99590.91
2022-11-22T08:43:11.904Z,99571.03
2022-11-22T08:45:39.084Z,99587.44
2022-11-22T08:48:05.907Z,99590.91
2022-11-22T08:50:32.551Z,99593.44
2022-11-22T08:53:01.430Z,99586.22
2022-11-22T08:55:27.894Z,99589.59
2022-11-22T08:57:58.926Z,99595.69
2022-11-22T09:00:30.069Z,99574.00
2022-11-22T09:02:59.470Z,99587.53
2022-11-22T09:05:25.998Z,99595.03
2022-11-22T09:10:38.850Z,99599.13
2022-11-22T09:13:05.313Z,99613.72
2022-11-22T09:15:31.919Z,99612.88
2022-11-22T09:18:02.923Z,99612.88
2022-11-22T09:20:29.392Z,99607.75
2022-11-22T09:22:55.818Z,99614.81
2022-11-22T09:25:22.458Z,99614.56
2022-11-22T09:27:48.884Z,99609.16
2022-11-22T09:30:15.666Z,99614.28
2022-11-22T09:32:44.407Z,99624.41
2022-11-22T09:35:10.901Z,99618.88
2022-11-22T09:37:37.315Z,99629.03
2022-11-22T09:40:04.079Z,99622.06
2022-11-22T09:42:50.117Z,99628.78
2022-11-22T09:45:25.395Z,99627.94
2022-11-22T09:47:51.985Z,99618.94
2022-11-22T09:50:57.677Z,99628.41
2022-11-22T09:53:35.224Z,99628.28
2022-11-22T09:56:08.380Z,99624.81
2022-11-22T09:58:44.051Z,99629.00
2022-11-22T10:01:12.918Z,99643.03
2022-11-22T10:03:48.794Z,99631.47
2022-11-22T10:06:27.429Z,99632.78
2022-11-22T10:09:18.430Z,99632.53
2022-11-22T10:12:11.287Z,99620.19
2022-11-22T10:15:05.925Z,99634.97
2022-11-22T10:17:38.843Z,99626.22
2022-11-22T10:20:17.024Z,99631.97
2022-11-22T10:22:43.861Z,99638.69
2022-11-22T10:25:21.172Z,99631.19
2022-11-22T10:28:00.364Z,99627.00
2022-11-22T10:30:34.712Z,99622.19
2022-11-22T10:33:17.050Z,99634.47
2022-11-22T10:35:58.457Z,99634.19
2022-11-22T10:38:47.256Z,99639.47
2022-11-22T10:41:39.888Z,99641.88
2022-11-22T10:44:35.938Z,99646.91
2022-11-22T10:47:09.855Z,99648.13
2022-11-22T10:50:03.512Z,99647.03
2022-11-22T10:52:38.059Z,99654.81
2022-11-22T10:55:25.773Z,99639.56
2022-11-22T10:58:15.190Z,99629.00
2022-11-22T11:00:47.569Z,99636.38
2022-11-22T11:03:26.192Z,99631.53
2022-11-22T11:07:04.601Z,99635.19
2022-11-22T11:12:40.005Z,99649.13
2022-11-22T11:15:28.548Z,99640.25
2022-11-22T11:18:17.530Z,99637.78
2022-11-22T11:20:46.540Z,99637.91
2022-11-22T11:23:15.513Z,99640.31
2022-11-22T11:25:47.574Z,99644.63
2022-11-22T11:28:26.710Z,99648.09
2022-11-22T11:31:07.367Z,99635.72
2022-11-22T11:33:38.342Z,99641.69
2022-11-22T11:36:19.306Z,99643.22
2022-11-22T11:38:45.701Z,99629.75
2022-11-22T11:41:36.151Z,99624.91
2022-11-22T11:44:05.841Z,99617.63
2022-11-22T11:46:52.499Z,99625.19
2022-11-22T11:49:24.263Z,99622.53
2022-11-22T11:51:56.407Z,99614.50
2022-11-22T11:54:29.628Z,99617.97
2022-11-22T11:56:57.767Z,99624.66
2022-11-22T11:59:46.550Z,99617.03
2022-11-22T12:02:25.069Z,99616.03
2022-11-22T12:04:54.269Z,99612.44
2022-11-22T12:07:27.655Z,99610.22
2022-11-22T12:09:55.763Z,99610.78
2022-11-22T12:12:43.869Z,99613.88
2022-11-22T12:15:35.232Z,99612.59
2022-11-22T12:18:12.269Z,99621.94
2022-11-22T12:21:07.465Z,99615.13
2022-11-22T12:23:50.972Z,99615.69
2022-11-22T12:26:18.829Z,99615.41
2022-11-22T12:28:46.599Z,99616.09
2022-11-22T12:31:24.078Z,99608.59
2022-11-22T12:33:56.285Z,99607.47
2022-11-22T12:36:32.707Z,99607.19
2022-11-22T12:39:02.729Z,99606.06
2022-11-22T12:41:33.104Z,99595.91
2022-11-22T12:44:04.788Z,99596.47
2022-11-22T12:46:42.176Z,99594.53
2022-11-22T12:49:29.929Z,99600.91
2022-11-22T12:52:04.050Z,99600.66
2022-11-22T12:54:37.256Z,99605.50
2022-11-22T12:57:15.806Z,99605.38
2022-11-22T13:00:03.029Z,99597.31
2022-11-22T13:02:37.406Z,99593.81
2022-11-22T13:05:23.730Z,99595.22
2022-11-22T13:08:02.849Z,99609.56
2022-11-22T13:10:38.603Z,99605.09
2022-11-22T13:13:13.219Z,99615.28
2022-11-22T13:15:40.783Z,99615.97
2022-11-22T13:18:09.768Z,99618.31
2022-11-22T13:20:43.199Z,99628.78
2022-11-22T13:23:37.376Z,99633.78
2022-11-22T13:26:15.152Z,99631.56
2022-11-22T13:28:43.445Z,99643.25
2022-11-22T13:31:09.799Z,99640.34
2022-11-22T13:33:39.505Z,99654.13
2022-11-22T13:36:24.725Z,99643.53
2022-11-22T13:38:59.480Z,99649.09
2022-11-22T13:41:37.139Z,99637.69
2022-11-22T13:44:39.148Z,99646.75
2022-11-22T13:47:28.370Z,99655.94
2022-11-22T13:49:54.914Z,99668.59
2022-11-22T13:52:21.274Z,99667.19
2022-11-22T13:54:47.861Z,99669.84
2022-11-22T13:57:37.406Z,99665.41
2022-11-22T14:00:09.972Z,99668.19
2022-11-22T14:02:37.871Z,99670.97
2022-11-22T14:05:18.291Z,99655.91
2022-11-22T14:07:45.422Z,99659.41
2022-11-22T14:10:32.837Z,99646.47
2022-11-22T14:13:29.788Z,99639.22
2022-11-22T14:16:11.462Z,99640.91
2022-11-22T14:18:54.743Z,99643.28
2022-11-22T14:21:42.395Z,99652.19
2022-11-22T14:24:08.756Z,99633.78
2022-11-22T14:26:52.543Z,99631.69
2022-11-22T14:29:58.354Z,99647.56
2022-11-22T14:32:26.457Z,99638.66
2022-11-22T14:35:05.024Z,99645.09
2022-11-22T14:37:31.862Z,99655.09
2022-11-22T14:40:04.269Z,99664.03
2022-11-22T14:42:36.964Z,99649.13
2022-11-22T14:45:12.484Z,99644.94
2022-11-22T14:47:53.118Z,99638.94
2022-11-22T14:50:45.892Z,99647.97
2022-11-22T14:53:21.703Z,99653.56
2022-11-22T14:55:49.221Z,99650.50
2022-11-22T14:58:23.033Z,99655.22
2022-11-22T15:01:15.135Z,99665.22
2022-11-22T15:09:12.787Z,99672.50
2022-11-22T15:09:19.843Z,99673.47
2022-11-22T15:10:33.268Z,99674.00
2022-11-22T15:13:15.563Z,99674.25
2022-11-22T15:59:39.440Z,99701.59
2022-11-22T16:02:21.178Z,99703.53
2022-11-22T16:06:06.459Z,99703.66
2022-11-22T16:07:40.427Z,99697.72
2022-11-22T16:10:37.590Z,99689.47
2022-11-22T16:13:34.347Z,99693.38
2022-11-22T16:16:12.627Z,99698.91
2022-11-22T16:18:40.146Z,99696.41
2022-11-22T16:21:20.378Z,99688.59
2022-11-22T16:23:47.022Z,99700.16
2022-11-22T16:26:22.119Z,99704.59
2022-11-22T16:28:51.406Z,99699.81
2022-11-22T16:31:20.143Z,99698.56
2022-11-22T16:33:46.655Z,99704.69
2022-11-22T16:36:15.075Z,99712.03
2022-11-22T16:38:42.622Z,99699.41
2022-11-22T16:41:29.388Z,99724.44
2022-11-22T16:44:06.281Z,99711.66
2022-11-22T16:46:32.774Z,99718.03
2022-11-22T16:48:59.234Z,99735.44
2022-11-22T16:51:30.558Z,99728.47
2022-11-22T16:53:59.811Z,99717.19
2022-11-22T16:56:28.974Z,99720.94
2022-11-22T16:58:57.065Z,99718.03
2022-11-22T17:01:26.480Z,99723.44
2022-11-22T17:03:56.293Z,99727.50
2022-11-22T17:06:27.618Z,99718.59
2022-11-22T17:08:56.126Z,99706.88
2022-11-22T17:11:24.699Z,99725.25
2022-11-22T17:13:51.358Z,99721.63
2022-11-22T17:16:17.879Z,99714.81
2022-11-22T17:18:45.807Z,99722.72
2022-11-22T17:21:26.153Z,99731.25
2022-11-22T17:23:56.061Z,99719.63
2022-11-22T17:26:22.813Z,99737.75
2022-11-22T17:28:49.245Z,99746.38
2022-11-22T17:31:18.054Z,99749.72
2022-11-22T17:33:44.803Z,99746.38
2022-11-22T17:36:22.145Z,99753.34
2022-11-22T17:38:48.602Z,99751.06
2022-11-22T17:41:15.036Z,99760.56
2022-11-22T17:43:41.603Z,99752.88
2022-11-22T17:46:08.123Z,99753.53
2022-11-22T17:48:34.614Z,99764.53
2022-11-22T17:51:08.887Z,99771.66
2022-11-22T17:53:35.737Z,99771.31
2022-11-22T17:56:10.552Z,99771.44
2022-11-22T17:58:38.539Z,99766.16
2022-11-22T18:01:21.060Z,99769.91
2022-11-22T18:03:48.319Z,99776.72
2022-11-22T18:06:16.655Z,99786.47
2022-11-22T18:08:46.952Z,99788.38
2022-11-22T18:11:14.876Z,99774.75
2022-11-22T18:13:41.785Z,99764.88
2022-11-22T18:16:12.150Z,99758.75
2022-11-22T18:21:30.435Z,99762.38
2022-11-22T18:23:58.323Z,99766.94
2022-11-22T18:26:41.400Z,99772.50
2022-11-22T18:29:40.745Z,99752.44
2022-11-22T18:31:56.419Z,99772.84
2022-11-22T18:34:23.227Z,99765.06
2022-11-22T18:36:55.928Z,99767.94
2022-11-22T18:39:26.177Z,99767.38
2022-11-22T18:41:52.570Z,99777.00
2022-11-22T18:44:19.520Z,99765.38
2022-11-22T18:46:46.775Z,99773.16
2022-11-22T18:49:13.247Z,99772.69
2022-11-22T18:51:39.919Z,99777.84
2022-11-22T18:54:06.382Z,99771.41
2022-11-22T18:56:37.718Z,99770.34
2022-11-22T18:59:06.171Z,99765.56
2022-11-22T19:01:34.508Z,99751.63
2022-11-22T19:04:01.721Z,99768.19
2022-11-22T19:06:28.372Z,99769.16
2022-11-22T19:08:55.308Z,99765.78
2022-11-22T19:11:22.026Z,99770.34
2022-11-22T19:13:48.487Z,99765.91
2022-11-22T19:16:17.273Z,99771.06
2022-11-22T19:18:44.957Z,99773.72
2022-11-22T19:21:14.502Z,99773.72
2022-11-22T19:23:41.219Z,99768.56
2022-11-22T19:26:10.694Z,99767.34
2022-11-22T19:28:37.607Z,99771.66
2022-11-22T19:31:07.711Z,99773.22
2022-11-22T19:33:34.797Z,99765.31
2022-11-22T19:36:06.532Z,99766.97
2022-11-22T19:38:33.239Z,99764.78
2022-11-22T19:40:59.748Z,99778.25
2022-11-22T19:43:26.159Z,99763.09
2022-11-22T19:45:52.602Z,99756.03
2022-11-22T19:48:19.129Z,99749.91
2022-11-22T19:50:45.904Z,99754.38
2022-11-22T19:53:12.339Z,99750.91
2022-11-22T19:55:45.171Z,99749.22
2022-11-22T19:58:12.085Z,99750.19
2022-11-22T20:00:38.596Z,99751.03
2022-11-22T20:03:05.015Z,99763.50
2022-11-22T20:05:32.525Z,99747.19
2022-11-22T20:07:59.431Z,99763.75
2022-11-22T20:10:25.969Z,99768.06
2022-11-22T20:12:52.462Z,99760.16
2022-11-22T20:15:19.068Z,99757.88
2022-11-22T20:17:45.542Z,99748.41
2022-11-22T20:20:11.969Z,99738.97
2022-11-22T20:22:38.341Z,99755.00
2022-11-22T20:25:06.027Z,99757.88
2022-11-22T20:27:32.655Z,99751.63
2022-11-22T20:30:01.335Z,99753.56
2022-11-22T20:32:28.914Z,99755.25
2022-11-22T20:34:55.299Z,99746.16
2022-11-22T20:37:22.011Z,99754.81
2022-11-22T20:39:48.442Z,99750.59
2022-11-22T20:45:01.498Z,99745.81
2022-11-22T20:47:27.899Z,99754.69
2022-11-22T20:49:54.293Z,99752.56
2022-11-22T20:52:20.772Z,99751.75
2022-11-22T20:54:47.258Z,99746.94
2022-11-22T20:57:13.850Z,99751.25
2022-11-22T20:59:40.296Z,99755.81
2022-11-22T21:02:09.316Z,99759.53
2022-11-22T21:04:36.167Z,99753.66
2022-11-22T21:07:02.666Z,99760.91
2022-11-22T21:09:29.225Z,99758.38
2022-11-22T21:11:55.943Z,99766.28
2022-11-22T21:14:22.338Z,99767.38
2022-11-22T21:16:48.777Z,99764.25
2022-11-22T21:19:15.300Z,99780.81
2022-11-22T21:21:41.705Z,99770.59
2022-11-22T21:24:11.574Z,99768.81
2022-11-22T21:26:38.005Z,99776.00
2022-11-22T21:29:12.895Z,99765.72
2022-11-22T21:31:42.297Z,99768.72
2022-11-22T21:34:09.239Z,99759.25
2022-11-22T21:36:35.681Z,99765.59
2022-11-22T21:39:02.097Z,99765.03
2022-11-22T21:41:43.831Z,99769.09
2022-11-22T21:44:10.813Z,99766.81
2022-11-22T21:46:38.078Z,99774.59
2022-11-22T21:49:04.638Z,99781.56
2022-11-22T21:51:32.020Z,99783.34
2022-11-22T21:54:02.160Z,99780.47
2022-11-22T21:56:28.787Z,99775.09
2022-11-22T21:58:55.334Z,99768.88
2022-11-22T22:01:22.521Z,99769.59
2022-11-22T22:03:49.184Z,99766.81
2022-11-22T22:06:15.669Z,99771.00
2022-11-22T22:08:42.439Z,99775.06
2022-11-22T22:11:08.857Z,99783.47
2022-11-22T22:13:35.416Z,99770.16
2022-11-22T22:16:06.625Z,99763.19
2022-11-22T22:18:35.559Z,99767.13
2022-11-22T22:21:03.941Z,99773.94
2022-11-22T22:23:30.768Z,99768.78
2022-11-22T22:26:02.152Z,99775.47
2022-11-22T22:28:30.225Z,99766.84
2022-11-22T22:31:10.854Z,99774.72
2022-11-22T22:33:39.655Z,99761.28
2022-11-22T22:36:07.329Z,99759.47
2022-11-22T22:38:34.604Z,99764.53
2022-11-22T22:41:03.696Z,99775.41
2022-11-22T22:43:32.785Z,99766.50
2022-11-22T22:46:06.496Z,99767.22
2022-11-22T22:48:33.927Z,99770.72
2022-11-22T22:51:05.440Z,99752.47
2022-11-22T22:53:31.907Z,99765.06
2022-11-22T22:55:58.468Z,99765.63
2022-11-22T22:58:24.843Z,99774.25
2022-11-22T23:00:51.273Z,99773.16
2022-11-22T23:03:17.787Z,99761.75
2022-11-22T23:05:45.019Z,99772.78
2022-11-22T23:08:11.596Z,99769.75
2022-11-22T23:10:38.822Z,99772.03
2022-11-22T23:13:05.707Z,99768.16
2022-11-22T23:15:51.123Z,99764.31
2022-11-22T23:18:18.618Z,99766.66
2022-11-22T23:20:44.989Z,99764.63
2022-11-22T23:23:11.388Z,99773.25
2022-11-22T23:25:37.841Z,99755.72
2022-11-22T23:28:04.493Z,99766.50
2022-11-22T23:30:30.918Z,99769.16
2022-11-22T23:32:57.436Z,99769.69
2022-11-22T23:35:23.835Z,99769.56
2022-11-22T23:37:50.222Z,99765.72
2022-11-22T23:40:16.892Z,99761.13
2022-11-22T23:42:43.260Z,99758.25
2022-11-22T23:45:10.050Z,99752.13
2022-11-22T23:47:36.435Z,99760.81
2022-11-22T23:50:03.341Z,99772.22
2022-11-22T23:52:29.927Z,99770.28
2022-11-22T23:54:56.377Z,99772.66
2022-11-22T23:57:22.780Z,99767.38
2022-11-22T23:59:49.176Z,99779.63
